Aérodrome :
LOGIN :

S'inscrire | Disclaimer

   EN    FR    IT 

 










Légende :    VFR   VFR Marginal   IFR   IFR Intensif   IFR Très Intensif
Visi : 
Plafond : 
>= 8 km
>= 3000ft
5 à 8 km
1000 à 3000 ft
1500m à 5 km
500 à 1000 ft
800 à 1500m
200 à 500 ft
< 800m
< 200 ft
Symboles :   Orages  Brouillard  Fortes neiges  Fortes précipitations  Vent > 20 kt
SIGMETs :   Divers  Orages  Givrage  Turbulence  Onde Orograph.  Cendres Volcan.






- Altitude de l'aérodrome : 1058 ft
- Code IATA : SCN


EDDR - Saarbrücken

DERNIER METAR :
  • 301820Z AUTO 30012KT 9999 SHRA FEW///TCU 16/11 Q1014 TEMPO 30015G30KT 3000 TSRA BKN020CB

METARs EXPIRÉS :
  • 301750Z AUTO 30017KT 9999 -SHRA FEW///TCU 16/12 Q1013 TEMPO 30015G30KT 3000 TSRA BKN020CB
  • 301720Z AUTO 29013G24KT CAVOK 16/13 Q1013 TEMPO 30015G30KT 3000 TSRA BKN020CB
  • 301650Z AUTO 28019KT CAVOK 17/14 Q1012 RESHRA NOSIG
  • 301620Z AUTO 31006KT 280V360 9999 SHRA FEW035 FEW///TCU 21/18 Q1011 RETS TEMPO NSW
  • 301550Z AUTO 20006KT 180V240 9999 +TSRA FEW018 BKN///CB 19/17 Q1011 TEMPO 3000

TAF TAF EDDR
Valide du 30 à 18h jusqu'au 01 à 18h UTC


301700Z 3018/0118 26007KT 9999 FEW040
PROB30
TEMPO 3018/3023 30020G35KT 3000 TSRA BKN008 BKN030CB
TEMPO 3023/0108 2000 -RA BR BKN004



MET'MAP, la Météo Aéronautique d'un coup d'oeil ! - Copyright ORBIFLY Décembre 2007 - Disclaimer

ORBIFLY MET'MAP TEAM :

Programmation & Développement : Alexandra Zaïnal
Sur une idée originale de : Baudouin d'Aumeries
Soutien technique & logistique : Manuel Goepfert
Assistance : Marc-Olivier Méhu




SOURCES & CREDITS :

   NOAA